Grover, CO (80729)

4:34 PM MDT on July 28, 2014 (GMT -0600)
Rd 106&83 - 9 miles NE of Briggsdale (KCOBRIGG1) Elev 5038 ft | 40.76 °N, 104.28 °W | Change Station
Active Advisory: Flash Flood Watch

Current weather conditions updated 4 minutes ago

Clear
Clear
86.8 °F
Feels Like 85 °F
N
10.0
Wind Variable Wind from SE
Gusts 15.0 mph

Tomorrow is forecast to be Much Cooler than today. Thunderstorms developing in the afternoon.

Today
High -- | Low -- °F
--% Chance of Precip.
Yesterday
High -- | Low -- °F
Precip. -- in
5:49 AM 8:16 PM
Waxing Crescent, 4% visible
Pressure 30.28 in
Visibility 10.0 miles
Clouds Clear
Heat Index 85 °F
Dew Point 52 °F
Humidity 30%
Rainfall 0.00 in
Snow Depth Not available.
UV 6 out of 12
Pollen 7.30 out of 12
Air Quality Not available.
Flu Activity Not available.
METAR K82V 282215Z AUTO 15011G14KT 10SM CLR 31/10 A3028 RMK AO2

More Conditions Fewer Conditions

Pressure 30.28 in
Visibility 10.0 miles
Clouds Clear
Heat Index 85 °F
Dew Point 52 °F
Humidity 30%
Rainfall 0.00 in
Snow Depth Not available.
UV 6 out of 12
Pollen 7.30 out of 12
Air Quality Not available.
Flu Activity Not available.
METAR K82V 282215Z AUTO 15011G14KT 10SM CLR 31/10 A3028 RMK AO2

More Conditions Fewer Conditions

10-Day Weather Forecast

Almanac

Astronomy

Jul. 28, 2014 Rise Set
Actual Time 5:49 AM MDT 8:16 PM MDT
Civil Twilight 5:17 AM MDT 8:47 PM MDT
Nautical Twilight 4:39 AM MDT 9:25 PM MDT
Astronomical Twilight 3:55 AM MDT 10:08 PM MDT
Moon 7:33 AM MDT 8:57 PM MDT
Length of Visible Light 15h 29m
Length of Day
14h 27m
Tomorrow will be 1m 56s shorter.
Waxing Crescent, 4% of the Moon is Illuminated
Today
Waxing Crescent
Aug 3
First Quarter
Aug 10
Full
Aug 17
Last Quarter
Aug 25
New

Today's Extremes

State Highs State Lows

Community

WunderPhotos

Upload Photos

1,738,513 photos uploaded!

Nearby

Snow Depth

Station Depth Elevation
Lake Irene 1 in 10700 ft
Niwot 0 in 9910 ft
University Camp 0 in 10300 ft
Rawah 22 in 9020 ft
Never Summer 0 in 10280 ft

Earthquake Activity

City Distance Mag. Time & Date
No recent earthquake activity has been reported nearby.
Minimum magnitude displayed is 2.5.

Coastal Water Temperatures

Place Temperature
No Stations Reporting

Nearby Weather Stations

Station Location Temp. Heat Index Dew Point Humidity Wind Precip. Elev Updated Type
Rd 106&83 - 9 miles NE of Briggsdale, Briggsdale, CO 86.8 °F 85 °F 52 °F 30% SE  at  10.0 mph 0.00 in / hr 5038 ft 4:30 PM MDT Normal
MesoWest EGBRT1 , Pine Bluffs, WY 81 °F 79 °F - - SSE  at  5 mph 0.00 in / hr 5152 ft 3:00 PM MDT MADIS

Show More Stations Show Fewer Stations